Time;durP1;ratioP1;P1;durP2;ratioP2;P2;SDS_P1;SDS_P2;PMS_P1;PMS_P2;Temp;Humidity;BMP_temperature;BMP_pressure;BME280_temperature;BME280_humidity;BME280_pressure;Samples;Min_cycle;Max_cycle;Signal;HPM_P1;HPM_P2
2022/04/09 04:00:50;;;;;;;20.43;13.47;;;2.20;99.90;;;-143.14;100.00;56521.75;5840512;23;20498;-77
2022/04/09 04:03:19;;;;;;;18.83;12.60;;;2.30;99.90;;;-143.14;100.00;56521.75;5028277;28;20937;-77
2022/04/09 04:05:47;;;;;;;15.57;11.20;;;2.30;99.90;;;-143.14;100.00;56521.75;5027640;28;21032;-77
2022/04/09 04:08:15;;;;;;;19.20;11.37;;;2.40;99.90;;;-143.14;100.00;56521.75;5027443;28;20462;-77
2022/04/09 04:10:42;;;;;;;17.47;12.20;;;2.40;99.90;;;-143.14;100.00;56521.75;5023688;28;20482;-77
2022/04/09 04:13:10;;;;;;;17.30;11.90;;;2.40;99.90;;;-143.14;100.00;56521.75;5007896;28;20557;-77
2022/04/09 04:15:37;;;;;;;18.90;12.43;;;2.40;99.90;;;-143.14;100.00;56521.75;5007865;28;20552;-77
2022/04/09 04:18:06;;;;;;;16.30;10.77;;;2.40;99.90;;;-143.14;100.00;56521.75;5007540;28;20783;-77
2022/04/09 04:20:34;;;;;;;18.10;12.83;;;2.50;99.90;;;-143.14;100.00;56521.75;5007301;28;20966;-78
2022/04/09 04:23:03;;;;;;;17.97;11.60;;;2.40;99.90;;;-143.14;100.00;56521.75;5010476;28;20450;-78
2022/04/09 04:25:30;;;;;;;16.73;11.50;;;2.40;99.90;;;-143.14;100.00;56521.75;5010283;28;20455;-78
2022/04/09 04:27:57;;;;;;;17.93;11.03;;;2.50;99.90;;;-143.14;100.00;56521.75;5009003;28;20969;-78
2022/04/09 04:30:24;;;;;;;19.37;12.67;;;2.50;99.90;;;-143.14;100.00;56521.75;5008837;28;20454;-78
2022/04/09 04:32:51;;;;;;;19.83;12.10;;;2.60;99.90;;;-143.14;100.00;56521.75;5010246;28;20489;-78
2022/04/09 04:35:20;;;;;;;16.40;11.37;;;2.60;99.90;;;-143.14;100.00;56521.75;5009589;28;20964;-78
2022/04/09 04:37:49;;;;;;;18.73;12.57;;;2.60;99.90;;;-143.14;100.00;56521.75;5009289;28;20522;-78
2022/04/09 04:40:16;;;;;;;17.73;11.20;;;2.50;99.90;;;-143.14;100.00;56521.75;5009632;28;20546;-78
2022/04/09 04:42:45;;;;;;;20.17;12.10;;;2.60;99.90;;;-143.14;100.00;56521.75;5009921;28;20821;-78
2022/04/09 04:45:13;;;;;;;14.50;11.03;;;2.70;99.90;;;-143.14;100.00;56521.75;5011140;28;20454;-77
2022/04/09 04:47:44;;;;;;;17.10;11.70;;;2.60;99.90;;;-143.14;100.00;56521.75;5009298;28;20454;-78
2022/04/09 04:50:11;;;;;;;21.73;12.80;;;2.50;99.90;;;-143.14;100.00;56521.75;5009825;28;20466;-79
2022/04/09 04:52:40;;;;;;;18.00;11.70;;;2.50;99.90;;;-143.14;100.00;56521.75;5009756;28;20463;-78
2022/04/09 04:55:09;;;;;;;19.03;12.27;;;2.60;99.90;;;-143.14;100.00;56521.75;5009864;28;20867;-81
2022/04/09 04:57:46;;;;;;;19.20;11.07;;;2.60;99.90;;;-143.14;100.00;56521.75;5008809;28;20553;-78
2022/04/09 05:00:18;;;;;;;19.10;11.63;;;2.50;99.90;;;-143.14;100.00;56521.75;5009432;28;20489;-78
2022/04/09 05:02:45;;;;;;;21.90;12.60;;;2.50;99.90;;;-143.14;100.00;56521.75;5009838;28;20486;-76
2022/04/09 05:05:13;;;;;;;19.63;11.80;;;2.50;99.90;;;-143.14;100.00;56521.75;5010188;28;20444;-77
2022/04/09 05:07:44;;;;;;;19.90;11.80;;;2.50;99.90;;;-143.14;100.00;56521.75;5009049;28;20958;-77
2022/04/09 05:10:14;;;;;;;22.70;12.50;;;2.50;99.90;;;-143.14;100.00;56521.75;5009818;28;20435;-76
2022/04/09 05:12:42;;;;;;;19.00;12.63;;;2.50;99.90;;;-143.14;100.00;56521.75;5009914;28;20432;-76
2022/04/09 05:15:13;;;;;;;21.10;12.33;;;2.40;99.90;;;-143.14;100.00;56521.75;5009623;28;20570;-76
2022/04/09 05:17:41;;;;;;;22.80;13.20;;;2.40;99.90;;;-143.14;100.00;56521.75;5008863;28;20522;-76
2022/04/09 05:20:11;;;;;;;20.27;12.70;;;2.50;99.90;;;-143.14;100.00;56521.75;5009428;28;20497;-76
2022/04/09 05:22:41;;;;;;;20.20;12.20;;;2.50;99.90;;;-143.14;100.00;56521.75;5009505;28;20450;-76
2022/04/09 05:25:13;;;;;;;22.27;13.07;;;2.50;99.90;;;-143.14;100.00;56521.75;5008717;28;20450;-76
2022/04/09 05:27:41;;;;;;;23.03;13.20;;;2.50;99.90;;;-143.14;100.00;56521.75;5008000;28;20454;-76
2022/04/09 05:30:09;;;;;;;23.53;13.63;;;2.50;99.90;;;-143.14;100.00;56521.75;5007512;28;20925;-79
2022/04/09 05:32:37;;;;;;;20.67;13.73;;;2.50;99.90;;;-143.14;100.00;56521.75;5008717;28;20493;-76
2022/04/09 05:35:05;;;;;;;26.43;13.97;;;2.50;99.90;;;-143.14;100.00;56521.75;5008630;28;20461;-76
2022/04/09 05:37:32;;;;;;;20.27;12.83;;;2.50;99.90;;;-143.14;100.00;56521.75;5008339;28;20459;-76
2022/04/09 05:39:59;;;;;;;20.87;14.00;;;2.40;99.90;;;-143.14;100.00;56521.75;5007849;28;20494;-77
2022/04/09 05:42:28;;;;;;;23.83;14.30;;;2.50;99.90;;;-143.14;100.00;56521.75;5008176;28;20844;-77
2022/04/09 05:44:55;;;;;;;22.83;13.47;;;2.50;99.90;;;-143.14;100.00;56521.75;5008711;28;21046;-76
2022/04/09 05:47:24;;;;;;;24.63;13.20;;;2.40;99.90;;;-143.14;100.00;56521.75;5008003;28;20487;-76
2022/04/09 05:49:51;;;;;;;28.07;14.47;;;2.40;99.90;;;-143.14;100.00;56521.75;5008565;28;20881;-76
2022/04/09 05:52:18;;;;;;;21.03;13.70;;;2.40;99.90;;;-143.14;100.00;56521.75;5008181;28;20476;-75
2022/04/09 05:54:45;;;;;;;26.97;14.53;;;2.30;99.90;;;-143.14;100.00;56521.75;5008382;28;20582;-77
2022/04/09 05:57:12;;;;;;;26.87;14.30;;;2.30;99.90;;;-143.14;100.00;56521.75;5008204;28;20451;-76
2022/04/09 05:59:41;;;;;;;24.63;15.77;;;2.40;99.90;;;-143.14;100.00;56521.75;5007318;28;20530;-77
2022/04/09 06:02:09;;;;;;;25.70;15.97;;;2.30;99.90;;;-143.14;100.00;56521.75;5010397;28;21029;-76
2022/04/09 06:04:37;;;;;;;25.93;15.37;;;2.30;99.90;;;-143.14;100.00;56521.75;5036402;23;21036;-76
2022/04/09 06:07:04;;;;;;;27.10;15.90;;;2.30;99.90;;;-143.14;100.00;56521.75;5031553;28;20454;-78
2022/04/09 06:09:31;;;;;;;34.33;17.30;;;2.30;99.90;;;-143.14;100.00;56521.75;5030700;28;20458;-75
2022/04/09 06:11:58;;;;;;;27.50;14.90;;;2.30;99.90;;;-143.14;100.00;56521.75;5031135;28;20456;-75
2022/04/09 06:14:25;;;;;;;28.10;16.63;;;2.40;99.90;;;-143.14;100.00;56521.75;5015223;28;20562;-76
2022/04/09 06:16:54;;;;;;;26.70;16.50;;;2.40;99.90;;;-143.14;100.00;56521.75;5010711;28;20457;-76
2022/04/09 06:19:21;;;;;;;25.67;16.93;;;2.40;99.90;;;-143.14;100.00;56521.75;5011651;28;20982;-77
2022/04/09 06:21:48;;;;;;;33.30;17.30;;;2.40;99.90;;;-143.14;100.00;56521.75;5011870;28;20462;-75
2022/04/09 06:24:15;;;;;;;28.73;17.00;;;2.40;99.90;;;-143.14;100.00;56521.75;5011904;28;20477;-74
2022/04/09 06:26:42;;;;;;;31.23;17.10;;;2.50;99.90;;;-143.14;100.00;56521.75;5012284;28;20549;-74
2022/04/09 06:29:09;;;;;;;29.13;18.33;;;2.50;99.90;;;-143.14;100.00;56521.75;5012184;28;20461;-74
2022/04/09 06:31:36;;;;;;;30.30;18.43;;;2.50;99.90;;;-143.14;100.00;56521.75;5012049;28;20439;-74
2022/04/09 06:34:05;;;;;;;27.70;15.67;;;2.50;99.90;;;-143.14;100.00;56521.75;5012111;28;20471;-76
2022/04/09 06:36:32;;;;;;;27.03;18.30;;;2.50;99.90;;;-143.14;100.00;56521.75;5011994;28;20549;-75
2022/04/09 06:39:00;;;;;;;27.20;17.40;;;2.50;99.90;;;-143.14;100.00;56521.75;5012158;28;20505;-76
2022/04/09 06:41:28;;;;;;;32.40;18.20;;;2.50;99.90;;;-143.14;100.00;56521.75;5012060;28;20462;-75
2022/04/09 06:43:56;;;;;;;32.33;17.40;;;2.50;99.90;;;-143.14;100.00;56521.75;5011961;28;20478;-75
2022/04/09 06:46:23;;;;;;;31.53;18.73;;;2.50;99.90;;;-143.14;100.00;56521.75;5011621;28;20967;-75
2022/04/09 06:48:50;;;;;;;35.07;19.40;;;2.60;99.90;;;-143.14;100.00;56521.75;5011696;28;20890;-75
2022/04/09 06:51:19;;;;;;;28.03;18.17;;;2.60;99.90;;;-143.14;100.00;56521.75;5012056;28;20467;-77
2022/04/09 06:53:46;;;;;;;29.60;19.00;;;2.70;99.90;;;-143.14;100.00;56521.75;5012070;28;20473;-75
2022/04/09 06:56:13;;;;;;;29.50;17.87;;;2.80;99.90;;;-143.14;100.00;56521.75;5011794;28;20545;-77
2022/04/09 06:58:40;;;;;;;28.60;17.53;;;2.80;99.90;;;-143.14;100.00;56521.75;5011669;28;20462;-74
2022/04/09 07:01:08;;;;;;;28.40;17.90;;;2.70;99.90;;;-143.14;100.00;56521.75;5011610;28;20940;-75
2022/04/09 07:03:35;;;;;;;29.40;18.10;;;2.80;99.90;;;-143.14;100.00;56521.75;5011697;28;20521;-74
2022/04/09 07:06:02;;;;;;;34.80;20.00;;;2.80;99.90;;;-143.14;100.00;56521.75;5011917;28;20530;-77
2022/04/09 07:08:30;;;;;;;26.70;17.60;;;2.90;99.90;;;-143.14;100.00;56521.75;5011420;28;20965;-75
2022/04/09 07:10:57;;;;;;;32.70;18.03;;;3.00;99.90;;;-143.14;100.00;56521.75;5014705;28;20453;-75
2022/04/09 07:13:24;;;;;;;28.10;18.57;;;3.10;99.90;;;-143.14;100.00;56521.75;5015834;28;20477;-75
2022/04/09 07:15:51;;;;;;;30.90;17.50;;;3.20;99.90;;;-143.14;100.00;56521.75;5015409;28;20541;-75
2022/04/09 07:18:18;;;;;;;26.80;17.90;;;3.20;99.90;;;-143.14;100.00;56521.75;5015465;28;20450;-76
2022/04/09 07:20:45;;;;;;;30.97;17.60;;;3.30;99.90;;;-143.14;100.00;56521.75;5015718;28;20950;-75
2022/04/09 07:23:12;;;;;;;26.93;16.83;;;3.30;99.90;;;-143.14;100.00;56521.75;5015349;28;21081;-77
2022/04/09 07:25:42;;;;;;;28.50;18.00;;;3.30;99.90;;;-143.14;100.00;56521.75;5015483;28;20447;-75
2022/04/09 07:28:10;;;;;;;25.27;15.73;;;3.30;99.90;;;-143.14;100.00;56521.75;5015297;28;20476;-76
2022/04/09 07:30:37;;;;;;;26.80;16.90;;;3.40;99.90;;;-143.14;100.00;56521.75;5015479;28;20509;-77
2022/04/09 07:33:04;;;;;;;24.70;16.53;;;3.50;99.90;;;-143.14;100.00;56521.75;5015519;28;20470;-75
2022/04/09 07:35:31;;;;;;;28.47;17.23;;;3.50;99.90;;;-143.14;100.00;56521.75;5015405;28;20453;-77
2022/04/09 07:38:00;;;;;;;24.40;16.30;;;3.60;99.90;;;-143.14;100.00;56521.75;5015097;28;20458;-75
2022/04/09 07:40:28;;;;;;;24.40;16.30;;;3.70;99.90;;;-143.14;100.00;56521.75;5015093;28;20502;-75
2022/04/09 07:42:59;;;;;;;22.07;15.20;;;3.80;99.90;;;-143.14;100.00;56521.75;5014728;28;20899;-76
2022/04/09 07:45:27;;;;;;;22.47;16.10;;;3.90;99.90;;;-143.14;100.00;56521.75;5015332;28;20534;-75
2022/04/09 07:47:57;;;;;;;23.57;15.77;;;3.90;99.90;;;-143.14;100.00;56521.75;5014962;28;20482;-75
2022/04/09 07:50:25;;;;;;;25.63;17.30;;;4.10;99.90;;;-143.14;100.00;56521.75;5015601;28;20501;-75
2022/04/09 07:52:53;;;;;;;21.53;14.33;;;4.20;99.90;;;-143.14;100.00;56521.75;5015283;28;20475;-75
2022/04/09 07:55:21;;;;;;;19.57;14.17;;;4.20;99.90;;;-143.14;100.00;56521.75;5015052;28;20461;-75
2022/04/09 07:57:50;;;;;;;19.10;14.90;;;4.30;99.90;;;-143.14;100.00;56521.75;5014976;28;20545;-75
2022/04/09 08:00:22;;;;;;;20.60;13.80;;;4.30;99.90;;;-143.14;100.00;56521.75;5014712;28;21036;-76
2022/04/09 08:02:49;;;;;;;21.90;13.93;;;4.40;99.90;;;-143.14;100.00;56521.75;5014687;28;20929;-75
2022/04/09 08:05:18;;;;;;;23.27;11.70;;;4.40;99.90;;;-143.14;100.00;56521.75;5015186;28;20470;-75
2022/04/09 08:07:47;;;;;;;16.80;12.17;;;4.40;99.90;;;-143.14;100.00;56521.75;5014305;28;20835;-76
2022/04/09 08:10:14;;;;;;;14.20;11.07;;;4.40;99.90;;;-143.14;100.00;56521.75;5015063;28;20482;-76
2022/04/09 08:12:42;;;;;;;14.20;10.73;;;4.40;99.90;;;-143.14;100.00;56521.75;5014702;28;20465;-76
2022/04/09 08:15:10;;;;;;;22.70;13.17;;;4.40;99.90;;;-143.14;100.00;56521.75;5014434;28;20471;-75
2022/04/09 08:17:40;;;;;;;19.50;11.77;;;4.40;99.90;;;-143.14;100.00;56521.75;5014235;28;20486;-76
2022/04/09 08:20:08;;;;;;;17.00;11.73;;;4.50;99.90;;;-143.14;100.00;56521.75;5014659;28;20926;-76
2022/04/09 08:22:35;;;;;;;15.40;9.90;;;4.60;99.90;;;-143.14;100.00;56521.75;5013388;28;20962;-75
2022/04/09 08:25:03;;;;;;;14.67;10.63;;;4.70;99.90;;;-143.14;100.00;56521.75;5014556;28;20844;-77
2022/04/09 08:27:30;;;;;;;16.80;11.10;;;4.70;99.90;;;-143.14;100.00;56521.75;5014406;28;20443;-76
2022/04/09 08:29:57;;;;;;;20.43;11.40;;;4.80;99.90;;;-143.14;100.00;56521.75;5014671;28;20442;-76
2022/04/09 08:32:25;;;;;;;15.30;10.00;;;4.90;99.90;;;-143.14;100.00;56521.75;5014507;28;20509;-78
2022/04/09 08:34:55;;;;;;;11.57;9.10;;;4.90;99.90;;;-143.14;100.00;56521.75;5013909;28;20475;-77
2022/04/09 08:37:23;;;;;;;12.20;8.97;;;4.90;99.90;;;-143.14;100.00;56521.75;5014191;28;20458;-76
2022/04/09 08:39:50;;;;;;;10.43;8.77;;;5.00;99.90;;;-143.14;100.00;56521.75;5014274;28;21001;-76
2022/04/09 08:42:18;;;;;;;14.87;10.37;;;5.00;99.90;;;-143.14;100.00;56521.75;5014111;28;20459;-76
2022/04/09 08:44:45;;;;;;;15.70;9.80;;;5.10;99.90;;;-143.14;100.00;56521.75;5014240;28;20480;-77
2022/04/09 08:47:15;;;;;;;14.43;8.87;;;5.30;99.90;;;-143.14;100.00;56521.75;5014022;28;20458;-76
2022/04/09 08:49:47;;;;;;;13.80;7.90;;;5.40;99.90;;;-143.14;100.00;56521.75;5013942;28;20985;-76
2022/04/09 08:52:16;;;;;;;12.87;8.47;;;5.30;99.90;;;-143.14;100.00;56521.75;5014505;28;20439;-75
2022/04/09 08:54:44;;;;;;;11.23;7.80;;;5.30;99.90;;;-143.14;100.00;56521.75;5013826;28;20478;-75
2022/04/09 08:57:11;;;;;;;15.93;6.90;;;5.40;99.90;;;-143.14;100.00;56521.75;5013605;28;20497;-75
2022/04/09 08:59:39;;;;;;;10.87;8.70;;;5.40;99.90;;;-143.14;100.00;56521.75;5013766;28;20491;-76
2022/04/09 09:02:08;;;;;;;13.33;7.53;;;5.50;99.90;;;-143.14;100.00;56521.75;5013693;28;20455;-78
2022/04/09 09:04:35;;;;;;;13.00;7.20;;;5.70;99.90;;;-143.14;100.00;56521.75;5013512;28;20578;-76
2022/04/09 09:07:22;;;;;;;16.53;7.83;;;5.90;99.90;;;-143.14;100.00;56521.75;5013450;28;20492;-78
2022/04/09 09:09:51;;;;;;;12.30;6.20;;;6.00;99.90;;;-143.14;100.00;56521.75;5013657;28;20461;-76
2022/04/09 09:12:30;;;;;;;11.70;6.50;;;6.10;99.90;;;-143.14;100.00;56521.75;5013977;28;20466;-77
2022/04/09 09:14:58;;;;;;;7.73;5.13;;;6.20;99.90;;;-143.14;100.00;56521.75;5013431;28;20852;-76
2022/04/09 09:17:31;;;;;;;7.43;5.97;;;6.30;99.90;;;-143.14;100.00;56521.75;5013392;28;20446;-75
2022/04/09 09:19:59;;;;;;;10.07;5.80;;;6.30;99.90;;;-143.14;100.00;56521.75;5013324;28;20549;-75
2022/04/09 09:22:42;;;;;;;9.10;5.87;;;6.30;99.90;;;-143.14;100.00;56521.75;5013522;28;20455;-76
2022/04/09 09:25:12;;;;;;;9.30;5.40;;;6.30;99.90;;;-143.14;100.00;56521.75;5013324;28;20461;-76
2022/04/09 09:27:40;;;;;;;6.40;4.50;;;6.20;99.90;;;-143.14;100.00;56521.75;5013040;28;20475;-78
2022/04/09 09:30:11;;;;;;;6.20;5.60;;;6.10;99.90;;;-143.14;100.00;56521.75;5013451;28;20800;-76
2022/04/09 09:32:41;;;;;;;11.20;6.30;;;6.10;99.90;;;-143.14;100.00;56521.75;5012889;28;20482;-76
2022/04/09 09:35:12;;;;;;;11.23;6.63;;;6.10;99.90;;;-143.14;100.00;56521.75;5012939;28;20458;-76
2022/04/09 09:37:40;;;;;;;16.17;6.73;;;6.30;99.90;;;-143.14;100.00;56521.75;5013270;28;20443;-75
2022/04/09 09:40:09;;;;;;;21.90;12.17;;;6.30;99.90;;;-143.14;100.00;56521.75;5013107;28;20556;-77
2022/04/09 09:42:36;;;;;;;10.20;6.93;;;6.40;99.90;;;-143.14;100.00;56521.75;5012900;28;20451;-76
2022/04/09 09:45:05;;;;;;;7.90;6.10;;;6.50;99.90;;;-143.14;100.00;56521.75;5013319;28;20459;-76
2022/04/09 09:47:32;;;;;;;11.93;6.67;;;6.40;99.90;;;-143.14;100.00;56521.75;5012889;28;20459;-75
2022/04/09 09:49:59;;;;;;;15.80;5.50;;;6.40;99.90;;;-143.14;100.00;56521.75;5012912;28;20482;-76
2022/04/09 09:52:29;;;;;;;13.60;5.40;;;6.30;99.90;;;-143.14;100.00;56521.75;5013029;28;20455;-76
2022/04/09 09:55:02;;;;;;;14.03;6.73;;;6.40;99.90;;;-143.14;100.00;56521.75;5012794;28;20506;-76
2022/04/09 09:57:32;;;;;;;11.30;6.33;;;6.50;99.90;;;-143.14;100.00;56521.75;5012552;28;20455;-76
2022/04/09 10:00:04;;;;;;;14.17;6.13;;;6.50;99.90;;;-143.14;100.00;56521.75;5012739;28;21044;-76
2022/04/09 10:02:32;;;;;;;10.30;4.87;;;6.70;99.90;;;-143.14;100.00;56521.75;5012839;28;20447;-76
2022/04/09 10:04:59;;;;;;;7.80;4.97;;;6.80;99.90;;;-143.14;100.00;56521.75;5012445;28;20460;-76
2022/04/09 10:07:26;;;;;;;8.97;5.10;;;7.00;99.90;;;-143.14;100.00;56521.75;5012585;28;20458;-76
2022/04/09 10:09:53;;;;;;;7.57;5.50;;;7.10;99.90;;;-143.14;100.00;56521.75;5012538;28;21021;-75
2022/04/09 10:12:24;;;;;;;12.13;5.03;;;7.10;99.90;;;-143.14;100.00;56521.75;5012720;28;20490;-77
2022/04/09 10:14:56;;;;;;;11.90;4.73;;;7.00;99.90;;;-143.14;100.00;56521.75;5012486;28;20874;-77
2022/04/09 10:17:27;;;;;;;8.73;4.67;;;7.10;99.90;;;-143.14;100.00;56521.75;5012498;28;20451;-76
2022/04/09 10:19:57;;;;;;;8.33;4.70;;;7.10;99.90;;;-143.14;100.00;56521.75;5012360;28;21018;-79
2022/04/09 10:22:28;;;;;;;6.17;3.77;;;7.20;99.90;;;-143.14;100.00;56521.75;5012542;28;20446;-76
2022/04/09 10:24:59;;;;;;;9.57;4.80;;;7.10;99.90;;;-143.14;100.00;56521.75;5012522;28;20861;-76
2022/04/09 10:27:40;;;;;;;8.10;4.40;;;7.00;99.90;;;-143.14;100.00;56521.75;5012067;28;20490;-76
2022/04/09 10:30:24;;;;;;;8.53;4.33;;;7.00;99.90;;;-143.14;100.00;56521.75;5012394;28;20990;-76
2022/04/09 10:32:54;;;;;;;6.63;3.73;;;7.00;99.90;;;-143.14;100.00;56521.75;5011156;28;20466;-76
2022/04/09 10:35:38;;;;;;;7.13;4.00;;;7.10;99.90;;;-143.14;100.00;56521.75;5012222;28;20454;-76
2022/04/09 10:38:20;;;;;;;12.23;4.30;;;7.20;99.90;;;-143.14;100.00;56521.75;5012330;28;20435;-77
2022/04/09 10:41:28;;;;;;;15.63;5.27;;;7.20;99.90;;;-143.14;100.00;56521.75;5012246;28;20491;-76
2022/04/09 10:44:00;;;;;;;8.20;4.50;;;7.20;99.90;;;-143.14;100.00;56521.75;5012176;28;20506;-78
2022/04/09 10:46:37;;;;;;;12.53;6.97;;;7.20;99.90;;;-143.14;100.00;56521.75;5012113;28;20502;-78
2022/04/09 10:49:25;;;;;;;16.30;6.63;;;7.30;99.90;;;-143.14;100.00;56521.75;5012196;28;20986;-76
2022/04/09 10:52:15;;;;;;;15.10;8.23;;;7.40;99.90;;;-143.14;100.00;56521.75;5012387;28;20438;-77
2022/04/09 10:55:06;;;;;;;7.30;5.73;;;7.30;99.90;;;-143.14;100.00;56521.75;5012015;28;20471;-76
2022/04/09 10:57:43;;;;;;;12.03;9.80;;;7.30;99.90;;;-143.14;100.00;56521.75;5012270;28;20458;-76
2022/04/09 11:00:31;;;;;;;9.47;4.47;;;7.40;99.90;;;-143.14;100.00;56521.75;5012421;28;20478;-77
2022/04/09 11:03:16;;;;;;;9.17;5.20;;;7.40;99.90;;;-143.14;100.00;56521.75;5011460;28;20479;-76
2022/04/09 11:05:44;;;;;;;6.93;4.23;;;7.30;99.90;;;-143.14;100.00;56521.75;5011779;28;20490;-77
2022/04/09 11:08:14;;;;;;;7.00;4.00;;;7.30;99.90;;;;;;5011985;28;20452;-76
2022/04/09 11:10:43;;;;;;;8.20;4.20;;;7.30;99.90;;;-143.14;100.00;56521.75;5011884;28;20796;-76
2022/04/09 11:13:14;;;;;;;6.60;4.27;;;7.30;99.90;;;-143.14;100.00;56521.75;5011795;28;20477;-76
2022/04/09 11:15:44;;;;;;;5.47;3.90;;;7.40;99.90;;;-143.14;100.00;56521.75;5011896;28;20434;-75
2022/04/09 11:18:11;;;;;;;11.03;3.50;;;7.60;99.90;;;-143.14;100.00;56521.75;5011798;28;21010;-76
2022/04/09 11:20:39;;;;;;;7.53;3.50;;;7.70;99.90;;;-143.14;100.00;56521.75;5011854;28;21097;-76
2022/04/09 11:23:14;;;;;;;8.47;3.90;;;7.70;99.90;;;-143.14;100.00;56521.75;5011742;28;20475;-76
2022/04/09 11:25:44;;;;;;;7.70;3.57;;;7.80;99.90;;;-143.14;100.00;56521.75;5011855;28;20466;-77
2022/04/09 11:28:13;;;;;;;8.30;3.90;;;7.90;99.90;;;-143.14;100.00;56521.75;5011696;28;20439;-76
2022/04/09 11:30:54;;;;;;;6.70;3.70;;;8.00;99.90;;;-143.14;100.00;56521.75;5011642;28;20950;-75
2022/04/09 11:33:22;;;;;;;7.60;4.00;;;8.10;99.90;;;-143.14;100.00;56521.75;5011900;28;20485;-76
2022/04/09 11:35:49;;;;;;;7.23;3.60;;;8.30;99.90;;;-143.14;100.00;56521.75;5011626;28;20459;-76
2022/04/09 11:38:17;;;;;;;6.80;3.70;;;8.30;99.90;;;-143.14;100.00;56521.75;5011260;28;20911;-76
2022/04/09 11:40:47;;;;;;;6.50;3.47;;;8.30;99.90;;;-143.14;100.00;56521.75;5011849;28;20491;-77
2022/04/09 11:43:15;;;;;;;13.17;4.10;;;8.50;99.90;;;-143.14;100.00;56521.75;5011873;28;20493;-76
2022/04/09 11:45:44;;;;;;;10.93;3.67;;;8.60;99.90;;;-143.14;100.00;56521.75;5012051;28;20455;-77
2022/04/09 11:48:18;;;;;;;7.60;3.57;;;8.70;99.90;;;-143.14;100.00;56521.75;5011755;28;20455;-76
2022/04/09 11:50:47;;;;;;;12.07;3.90;;;8.90;99.90;;;-143.14;100.00;56521.75;5011400;28;20446;-76
2022/04/09 11:53:17;;;;;;;8.60;5.00;;;9.00;99.90;;;-143.14;100.00;56521.75;5011788;28;20485;-77
2022/04/09 11:55:46;;;;;;;7.47;3.53;;;9.10;99.90;;;-143.14;100.00;56521.75;5011559;28;20454;-76
2022/04/09 11:58:15;;;;;;;26.27;16.53;;;9.40;99.90;;;-143.14;100.00;56521.75;5014399;28;21026;-76
2022/04/09 12:00:46;;;;;;;16.03;7.77;;;9.60;99.90;;;-143.14;100.00;56521.75;5015252;28;20540;-77
2022/04/09 12:03:16;;;;;;;5.47;3.50;;;9.70;99.90;;;-143.14;100.00;56521.75;5015829;28;20478;-78
2022/04/09 12:05:47;;;;;;;11.73;4.23;;;9.80;99.90;;;-143.14;100.00;56521.75;5017178;28;20462;-78
2022/04/09 12:08:17;;;;;;;6.33;4.10;;;9.90;99.90;;;-143.14;100.00;56521.75;5016332;28;20446;-77
2022/04/09 12:10:56;;;;;;;8.43;4.07;;;10.00;99.90;;;-143.14;100.00;56521.75;5017123;28;20485;-77
2022/04/09 12:13:29;;;;;;;7.37;4.27;;;9.90;99.90;;;-143.14;100.00;56521.75;5015952;28;20557;-77
2022/04/09 12:16:03;;;;;;;8.00;3.77;;;9.70;99.90;;;-143.14;100.00;56521.75;5014640;28;20523;-78
2022/04/09 12:18:33;;;;;;;10.87;4.13;;;9.80;99.90;;;-143.14;100.00;56521.75;5014546;28;20457;-77
2022/04/09 12:21:16;;;;;;;8.90;5.43;;;9.90;99.90;;;;;;5014557;28;20495;-77
2022/04/09 12:23:43;;;;;;;7.90;4.03;;;10.10;99.90;;;;;;5014347;28;21020;-77
2022/04/09 12:26:22;;;;;;;6.10;3.33;;;10.10;99.90;;;;;;5014124;28;20461;-77
2022/04/09 12:29:06;;;;;;;5.20;3.00;;;10.10;99.90;;;;;;5014698;28;20439;-77
2022/04/09 12:31:33;;;;;;;8.20;3.40;;;10.10;99.90;;;-143.14;100.00;56521.75;5014313;28;20451;-77
2022/04/09 12:34:03;;;;;;;8.20;2.80;;;9.90;99.90;;;-143.14;100.00;56521.75;5014264;28;20475;-77
2022/04/09 12:36:31;;;;;;;5.83;2.47;;;9.60;99.90;;;-143.14;100.00;56521.75;5013716;28;20461;-77
2022/04/09 12:39:00;;;;;;;5.50;3.07;;;9.60;99.90;;;-143.14;100.00;56521.75;5014089;28;20455;-77
2022/04/09 12:41:44;;;;;;;7.03;3.10;;;9.70;99.90;;;-143.14;100.00;56521.75;5014325;28;20490;-77
2022/04/09 12:44:25;;;;;;;6.23;3.30;;;9.70;99.90;;;-143.14;100.00;56521.75;5014300;28;20474;-77
2022/04/09 12:46:54;;;;;;;10.00;6.90;;;9.80;99.90;;;-143.14;100.00;56521.75;5013489;28;20520;-77
2022/04/09 12:49:26;;;;;;;27.73;16.30;;;9.80;99.90;;;-143.14;100.00;56521.75;5013838;28;20958;-77
2022/04/09 12:51:53;;;;;;;8.50;5.40;;;9.70;99.90;;;-143.14;100.00;56521.75;5014078;28;20458;-77
2022/04/09 12:54:21;;;;;;;16.50;7.30;;;10.00;99.90;;;-143.14;100.00;56521.75;5013918;28;20466;-77
2022/04/09 12:56:48;;;;;;;13.00;5.70;;;10.30;99.90;;;-143.14;100.00;56521.75;5013907;28;20454;-77
2022/04/09 12:59:15;;;;;;;8.07;3.80;;;10.40;99.90;;;-143.14;100.00;56521.75;5014014;28;20490;-77
2022/04/09 13:01:43;;;;;;;8.47;3.27;;;10.40;99.90;;;-143.14;100.00;56521.75;5013398;28;20491;-77
2022/04/09 13:04:10;;;;;;;7.77;4.10;;;10.30;99.90;;;-143.14;100.00;56521.75;5013583;28;20570;-77
2022/04/09 13:06:40;;;;;;;7.57;3.30;;;10.30;99.90;;;-143.14;100.00;56521.75;5013288;28;20462;-77
2022/04/09 13:09:09;;;;;;;7.53;2.50;;;10.50;99.90;;;-143.14;100.00;56521.75;5013627;28;20530;-77
2022/04/09 13:11:36;;;;;;;7.00;2.20;;;10.60;99.90;;;-143.14;100.00;56521.75;5013770;28;20451;-77
2022/04/09 13:14:07;;;;;;;3.93;2.83;;;10.70;99.90;;;-143.14;100.00;56521.75;5013400;28;20477;-77
2022/04/09 13:16:34;;;;;;;2.63;2.20;;;10.70;99.90;;;-143.14;100.00;56521.75;5013478;28;20462;-77
2022/04/09 13:19:02;;;;;;;4.20;2.60;;;10.80;99.90;;;-143.14;100.00;56521.75;5013696;28;20929;-79
2022/04/09 13:21:30;;;;;;;4.83;2.17;;;11.00;99.90;;;-143.14;100.00;56521.75;5013271;28;20501;-77
2022/04/09 13:23:58;;;;;;;4.17;2.50;;;10.90;99.90;;;-143.14;100.00;56521.75;5013193;28;20509;-77
2022/04/09 13:26:25;;;;;;;4.50;2.60;;;10.60;99.90;;;-143.14;100.00;56521.75;5013449;28;20824;-77
2022/04/09 13:28:53;;;;;;;4.67;2.23;;;10.70;99.90;;;-143.14;100.00;56521.75;5013413;28;20458;-77
2022/04/09 13:31:20;;;;;;;3.63;2.27;;;10.90;99.90;;;-143.14;100.00;56521.75;5013411;28;20471;-77
2022/04/09 13:33:47;;;;;;;7.20;2.27;;;11.00;99.90;;;-143.14;100.00;56521.75;5013149;28;20504;-77
2022/04/09 13:36:18;;;;;;;6.00;2.67;;;11.20;99.90;;;-143.14;100.00;56521.75;5013032;28;20566;-77
2022/04/09 13:38:45;;;;;;;5.53;2.33;;;11.30;99.90;;;-143.14;100.00;56521.75;5013174;28;20513;-77
2022/04/09 13:41:16;;;;;;;6.17;2.10;;;11.50;99.90;;;-143.14;100.00;56521.75;5012609;28;20494;-77
2022/04/09 13:43:43;;;;;;;5.13;2.37;;;11.30;99.90;;;-143.14;100.00;56521.75;5013316;28;20892;-77
2022/04/09 13:46:11;;;;;;;7.40;2.20;;;11.20;99.90;;;-143.14;100.00;56521.75;5013028;28;20953;-77
2022/04/09 13:48:38;;;;;;;4.50;2.00;;;11.20;99.90;;;-143.14;100.00;56521.75;5013003;28;20447;-77
2022/04/09 13:51:05;;;;;;;6.30;2.70;;;11.00;99.90;;;-143.14;100.00;56521.75;5012948;28;20447;-77
2022/04/09 13:53:32;;;;;;;4.93;2.13;;;10.90;99.90;;;-143.14;100.00;56521.75;5012841;28;20507;-76
2022/04/09 13:56:01;;;;;;;4.43;2.03;;;10.80;99.90;;;-143.14;100.00;56521.75;5012786;28;20541;-77
2022/04/09 13:58:29;;;;;;;6.13;2.27;;;10.80;99.90;;;-143.14;100.00;56521.75;5012504;28;20461;-77
2022/04/09 14:00:56;;;;;;;3.93;2.20;;;10.80;99.90;;;-143.14;100.00;56521.75;5012736;28;20549;-77
2022/04/09 14:03:23;;;;;;;3.53;2.00;;;10.70;99.90;;;;;;5012506;28;20561;-77
2022/04/09 14:05:50;;;;;;;6.20;2.70;;;10.70;99.90;;;;;;5012780;28;20545;-77
2022/04/09 14:08:18;;;;;;;6.40;2.30;;;10.70;99.90;;;;;;5011990;28;20933;-77
2022/04/09 14:10:45;;;;;;;5.33;2.13;;;10.70;99.90;;;;;;5012699;28;20447;-77
2022/04/09 14:13:12;;;;;;;4.87;2.40;;;10.80;99.90;;;;;;5012467;28;20530;-77